Time;durP1;ratioP1;P1;durP2;ratioP2;P2;SDS_P1;SDS_P2;PMS_P1;PMS_P2;Temp;Humidity;BMP_temperature;BMP_pressure;BME280_temperature;BME280_humidity;BME280_pressure;Samples;Min_cycle;Max_cycle;Signal;HPM_P1;HPM_P2
2023/07/26 00:00:15;;;;;;;14.63;7.23;;;12.70;99.90;;;;;;5067377;28;20185;-71
2023/07/26 00:02:41;;;;;;;9.93;6.50;;;12.70;99.90;;;;;;5074368;28;20303;-71
2023/07/26 00:05:07;;;;;;;9.20;6.33;;;12.70;99.90;;;;;;5065793;28;20194;-71
2023/07/26 00:07:33;;;;;;;9.43;6.20;;;12.70;99.90;;;;;;5073951;28;20189;-71
2023/07/26 00:09:58;;;;;;;13.00;6.27;;;12.70;99.90;;;;;;5074225;28;20442;-71
2023/07/26 00:12:26;;;;;;;15.60;6.30;;;12.80;99.90;;;;;;5071502;28;20230;-71
2023/07/26 00:14:52;;;;;;;11.70;6.17;;;12.70;99.90;;;;;;5063703;28;20205;-71
2023/07/26 00:17:18;;;;;;;9.73;6.13;;;12.60;99.90;;;;;;5070847;28;20510;-71
2023/07/26 00:19:44;;;;;;;7.40;5.13;;;12.60;99.90;;;;;;5054152;28;20184;-71
2023/07/26 00:22:09;;;;;;;8.50;4.90;;;12.50;99.90;;;;;;5067047;28;20639;-71
2023/07/26 00:24:35;;;;;;;20.50;5.97;;;12.60;99.90;;;;;;5057105;28;20182;-71
2023/07/26 00:27:00;;;;;;;9.50;6.50;;;12.50;99.90;;;;;;5070301;28;20185;-71
2023/07/26 00:29:26;;;;;;;10.50;6.37;;;12.60;99.90;;;;;;5059174;28;20185;-72
2023/07/26 00:31:52;;;;;;;8.47;6.10;;;12.60;99.90;;;;;;5067033;28;20198;-72
2023/07/26 00:34:17;;;;;;;10.10;6.10;;;12.60;99.90;;;;;;5053579;28;20544;-71
2023/07/26 00:36:43;;;;;;;9.27;6.13;;;12.60;99.90;;;;;;5056177;28;20209;-72
2023/07/26 00:39:08;;;;;;;16.43;6.43;;;12.70;99.90;;;;;;5064296;28;20216;-72
2023/07/26 00:41:34;;;;;;;11.47;6.00;;;12.70;99.90;;;;;;5056322;28;20185;-72
2023/07/26 00:44:00;;;;;;;13.53;6.20;;;12.70;99.90;;;;;;5073341;28;20185;-72
2023/07/26 00:46:26;;;;;;;11.97;6.53;;;12.70;99.90;;;;;;5057022;28;20276;-72
2023/07/26 00:48:51;;;;;;;13.23;6.30;;;12.70;99.90;;;;;;5053845;28;20256;-71
2023/07/26 00:51:18;;;;;;;11.43;6.40;;;12.70;99.90;;;;;;5053298;28;21382;-72
2023/07/26 00:53:44;;;;;;;8.70;5.20;;;12.70;99.90;;;;;;5066696;28;20177;-72
2023/07/26 00:56:10;;;;;;;8.70;5.57;;;12.70;99.90;;;;;;5073018;28;20451;-71
2023/07/26 00:58:36;;;;;;;16.37;7.00;;;12.70;99.90;;;;;;5073439;28;20419;-71
2023/07/26 01:01:03;;;;;;;8.57;5.37;;;12.70;99.90;;;;;;5063074;28;20292;-72
2023/07/26 01:03:29;;;;;;;10.70;6.30;;;12.70;99.90;;;;;;5062648;28;20422;-72
2023/07/26 01:06:20;;;;;;;8.87;6.07;;;12.70;99.90;;;;;;5072569;28;20767;-71
2023/07/26 01:09:14;;;;;;;11.27;5.40;;;12.70;99.90;;;;;;5072711;28;20638;-72
2023/07/26 01:11:57;;;;;;;10.30;6.50;;;12.70;99.90;;;;;;5070333;28;20411;-71
2023/07/26 01:14:32;;;;;;;8.90;5.83;;;12.70;99.90;;;;;;5067041;28;21196;-72
2023/07/26 01:16:58;;;;;;;7.17;4.97;;;12.70;99.90;;;;;;5052888;28;20547;-71
2023/07/26 01:19:24;;;;;;;8.63;5.00;;;12.70;99.90;;;;;;5054936;28;20897;-72
2023/07/26 01:21:50;;;;;;;13.40;5.97;;;12.70;99.90;;;;;;5059444;28;20423;-72
2023/07/26 01:24:15;;;;;;;21.93;5.57;;;12.70;99.90;;;;;;5072115;28;20268;-72
2023/07/26 01:26:41;;;;;;;9.57;5.27;;;12.70;99.90;;;;;;5059334;28;20182;-72
2023/07/26 01:29:06;;;;;;;8.93;5.03;;;12.70;99.90;;;;;;5076450;28;20189;-72
2023/07/26 01:31:33;;;;;;;10.00;4.33;;;12.60;99.90;;;;;;5072605;28;20587;-72
2023/07/26 01:34:00;;;;;;;8.90;3.97;;;12.60;99.90;;;;;;5071682;28;20707;-72
2023/07/26 01:36:29;;;;;;;7.93;5.40;;;12.50;99.90;;;;;;5072253;28;20470;-72
2023/07/26 01:38:56;;;;;;;10.83;4.37;;;12.60;99.90;;;;;;5071118;28;20494;-72
2023/07/26 01:41:23;;;;;;;8.23;5.57;;;12.80;99.90;;;;;;5072297;28;20445;-72
2023/07/26 01:43:48;;;;;;;8.33;5.50;;;12.60;99.90;;;;;;5069831;28;20423;-72
2023/07/26 01:46:14;;;;;;;7.33;5.43;;;12.60;99.90;;;;;;5072618;28;20431;-73
2023/07/26 01:48:41;;;;;;;8.80;5.13;;;12.50;99.90;;;;;;5072389;28;20284;-72
2023/07/26 01:51:07;;;;;;;7.90;4.90;;;12.50;99.90;;;;;;5071877;28;20184;-72
2023/07/26 01:53:33;;;;;;;10.33;5.13;;;12.60;99.90;;;;;;5070050;28;20758;-72
2023/07/26 01:56:00;;;;;;;9.20;5.47;;;12.50;99.90;;;;;;5071823;28;20205;-72
2023/07/26 01:58:26;;;;;;;12.50;4.90;;;12.40;99.90;;;;;;5071987;28;20403;-72
2023/07/26 02:00:52;;;;;;;10.50;5.30;;;12.40;99.90;;;;;;5066720;28;20426;-72
2023/07/26 02:03:17;;;;;;;7.70;4.87;;;12.40;99.90;;;;;;5063489;28;20188;-72
2023/07/26 02:05:47;;;;;;;15.37;4.87;;;12.40;99.90;;;;;;5058141;28;20754;-72
2023/07/26 02:08:13;;;;;;;23.80;5.77;;;12.40;99.90;;;;;;5063484;28;20276;-72
2023/07/26 02:10:40;;;;;;;7.67;5.60;;;12.40;99.90;;;;;;5069417;28;20442;-72
2023/07/26 02:13:05;;;;;;;10.80;5.30;;;12.30;99.90;;;;;;5066073;28;20415;-72
2023/07/26 02:15:31;;;;;;;11.63;4.60;;;12.30;99.90;;;;;;5067594;28;20558;-72
2023/07/26 02:17:57;;;;;;;9.07;4.90;;;12.20;99.90;;;;;;5075227;28;20188;-72
2023/07/26 02:20:23;;;;;;;8.10;4.40;;;12.30;99.90;;;;;;5069159;28;20177;-72
2023/07/26 02:22:48;;;;;;;7.03;3.87;;;12.50;99.90;;;;;;5071698;28;20525;-72
2023/07/26 02:25:14;;;;;;;5.40;3.70;;;12.30;99.90;;;;;;5070975;28;20570;-72
2023/07/26 02:27:40;;;;;;;7.67;4.17;;;12.20;99.90;;;;;;5072026;28;20222;-72
2023/07/26 02:30:07;;;;;;;7.87;4.27;;;12.20;99.90;;;;;;5067503;28;20189;-72
2023/07/26 02:32:32;;;;;;;9.40;3.93;;;12.20;99.90;;;;;;5062822;28;20284;-72
2023/07/26 02:34:58;;;;;;;5.47;3.67;;;12.10;99.90;;;;;;5070190;28;20554;-72
2023/07/26 02:37:24;;;;;;;10.03;4.90;;;12.10;99.90;;;;;;5071874;28;20192;-72
2023/07/26 02:39:50;;;;;;;6.30;3.93;;;12.00;99.90;;;;;;5070368;28;20188;-73
2023/07/26 02:42:16;;;;;;;6.17;3.90;;;12.10;99.90;;;;;;5051664;28;20204;-72
2023/07/26 02:44:41;;;;;;;7.90;4.87;;;12.10;99.90;;;;;;5066181;28;20506;-72
2023/07/26 02:47:07;;;;;;;9.63;4.13;;;12.10;99.90;;;;;;5065815;28;20255;-72
2023/07/26 02:49:33;;;;;;;5.73;4.10;;;12.30;99.90;;;;;;5070439;28;20197;-72
2023/07/26 02:51:59;;;;;;;8.70;4.13;;;12.10;99.90;;;;;;5070589;28;20177;-73
2023/07/26 02:54:24;;;;;;;5.70;3.87;;;12.10;99.90;;;;;;5071310;28;20193;-72
2023/07/26 02:56:50;;;;;;;7.33;3.90;;;12.10;99.90;;;;;;5071367;28;20278;-72
2023/07/26 02:59:18;;;;;;;8.83;4.57;;;12.10;99.90;;;;;;5060153;28;20209;-72
2023/07/26 03:01:44;;;;;;;9.70;4.60;;;12.10;99.90;;;;;;5071329;28;20200;-72
2023/07/26 03:04:10;;;;;;;9.93;4.37;;;12.20;99.90;;;;;;5069013;28;20442;-72
2023/07/26 03:06:36;;;;;;;9.27;4.53;;;12.20;99.90;;;;;;5064304;28;20421;-72
2023/07/26 03:09:02;;;;;;;15.47;4.90;;;12.20;99.90;;;;;;5066453;28;20840;-73
2023/07/26 03:11:28;;;;;;;6.40;4.30;;;12.20;99.90;;;;;;5070704;28;20633;-73
2023/07/26 03:13:55;;;;;;;5.23;3.43;;;12.20;99.90;;;;;;5070666;28;20189;-72
2023/07/26 03:16:21;;;;;;;5.77;3.23;;;12.20;99.90;;;;;;5060506;28;20236;-72
2023/07/26 03:18:47;;;;;;;8.60;3.30;;;12.20;99.90;;;;;;5063291;28;20896;-72
2023/07/26 03:21:12;;;;;;;5.87;4.00;;;12.10;99.90;;;;;;5063759;28;20427;-72
2023/07/26 03:23:38;;;;;;;8.93;3.63;;;12.10;99.90;;;;;;5066741;28;20193;-72
2023/07/26 03:26:04;;;;;;;5.53;3.20;;;12.10;99.90;;;;;;5071023;28;20185;-72
2023/07/26 03:28:29;;;;;;;6.93;3.47;;;12.20;99.90;;;;;;5068674;28;20242;-72
2023/07/26 03:30:55;;;;;;;11.37;4.47;;;12.10;99.90;;;;;;5061755;28;20181;-72
2023/07/26 03:33:21;;;;;;;5.00;3.23;;;12.00;99.90;;;;;;5074247;28;20255;-72
2023/07/26 03:35:47;;;;;;;6.13;3.20;;;12.10;99.90;;;;;;5074507;28;20228;-72
2023/07/26 03:38:13;;;;;;;6.23;4.10;;;12.00;99.90;;;;;;5074522;28;20430;-72
2023/07/26 03:40:40;;;;;;;8.60;4.13;;;12.00;99.90;;;;;;5074378;28;20419;-72
2023/07/26 03:43:06;;;;;;;5.63;3.57;;;12.00;99.90;;;;;;5074031;28;20205;-72
2023/07/26 03:45:32;;;;;;;6.00;4.20;;;11.90;99.90;;;;;;5074002;28;20419;-72
2023/07/26 03:47:57;;;;;;;10.07;3.47;;;11.90;99.90;;;;;;5070500;28;20427;-73
2023/07/26 03:50:23;;;;;;;5.10;3.10;;;11.90;99.90;;;;;;5066803;28;20765;-73
2023/07/26 03:52:48;;;;;;;10.53;3.30;;;11.90;99.90;;;;;;5055665;28;20193;-73
2023/07/26 03:55:15;;;;;;;11.27;3.80;;;11.80;99.90;;;;;;5073763;28;20208;-73
2023/07/26 03:57:40;;;;;;;4.63;3.30;;;11.80;99.90;;;;;;5067337;28;20265;-72
2023/07/26 04:00:06;;;;;;;6.60;3.77;;;11.80;99.90;;;;;;5065922;28;20510;-73
2023/07/26 04:02:32;;;;;;;4.47;3.37;;;11.90;99.90;;;;;;5074078;28;20193;-72
2023/07/26 04:04:58;;;;;;;6.17;3.10;;;12.00;99.90;;;;;;5073880;28;20430;-73
2023/07/26 04:07:24;;;;;;;5.70;3.63;;;11.90;99.90;;;;;;5073778;28;20189;-72
2023/07/26 04:09:49;;;;;;;13.83;3.57;;;11.90;99.90;;;;;;5074262;28;20180;-73
2023/07/26 04:12:15;;;;;;;8.40;3.30;;;11.90;99.90;;;;;;5072099;28;20216;-73
2023/07/26 04:14:41;;;;;;;6.30;3.63;;;11.90;99.90;;;;;;5053380;28;20194;-73
2023/07/26 04:17:07;;;;;;;7.20;3.97;;;12.00;99.90;;;;;;5069105;28;21086;-73
2023/07/26 04:19:33;;;;;;;4.73;3.17;;;12.00;99.90;;;;;;5073899;28;20280;-73
2023/07/26 04:21:58;;;;;;;6.13;3.93;;;12.10;99.90;;;;;;5073775;28;20423;-73
2023/07/26 04:24:24;;;;;;;6.40;3.57;;;12.10;99.90;;;;;;5069421;28;20192;-72
2023/07/26 04:26:50;;;;;;;7.97;4.40;;;12.10;99.90;;;;;;5073513;28;20246;-73
2023/07/26 04:29:16;;;;;;;14.63;5.10;;;12.20;99.90;;;;;;5064285;28;20420;-72
2023/07/26 04:31:41;;;;;;;8.97;4.20;;;12.20;99.90;;;;;;5073927;28;20769;-73
2023/07/26 04:34:07;;;;;;;6.00;3.47;;;12.20;99.90;;;;;;5073359;28;20178;-73
2023/07/26 04:36:32;;;;;;;11.33;3.73;;;12.70;99.90;;;;;;5073551;28;20212;-73
2023/07/26 04:38:58;;;;;;;10.07;4.63;;;12.30;99.90;;;;;;5065990;28;20182;-73
2023/07/26 04:41:24;;;;;;;7.03;4.07;;;12.70;99.90;;;;;;5067838;28;20173;-73
2023/07/26 04:43:49;;;;;;;5.47;4.10;;;12.30;99.90;;;;;;5072068;28;20256;-72
2023/07/26 04:46:16;;;;;;;6.97;3.50;;;12.30;99.90;;;;;;5073452;28;20181;-73
2023/07/26 04:48:42;;;;;;;6.37;4.20;;;12.60;99.90;;;;;;5066015;28;20395;-72
2023/07/26 04:51:07;;;;;;;5.30;3.23;;;12.40;99.90;;;;;;5067158;28;21082;-72
2023/07/26 04:53:33;;;;;;;7.77;3.93;;;12.40;99.90;;;;;;5067734;28;20190;-73
2023/07/26 04:55:59;;;;;;;5.60;3.40;;;12.40;99.90;;;;;;5070889;28;20219;-73
2023/07/26 04:58:24;;;;;;;6.00;3.20;;;12.30;99.90;;;;;;5071570;28;20265;-73
2023/07/26 05:00:50;;;;;;;5.53;3.23;;;12.40;99.90;;;;;;5073065;28;20514;-72
2023/07/26 05:03:16;;;;;;;5.83;3.17;;;12.30;99.90;;;;;;5073145;28;20196;-73
2023/07/26 05:05:41;;;;;;;5.70;3.20;;;12.50;99.90;;;;;;5072814;28;20223;-73
2023/07/26 05:08:08;;;;;;;3.80;2.87;;;12.60;99.90;;;;;;5065282;28;20186;-73
2023/07/26 05:10:34;;;;;;;6.47;3.70;;;12.40;99.90;;;;;;5066107;28;20192;-73
2023/07/26 05:13:01;;;;;;;7.07;3.23;;;12.40;99.90;;;;;;5063671;28;20477;-72
2023/07/26 05:15:27;;;;;;;4.23;3.10;;;12.40;99.90;;;;;;5071887;28;20459;-72
2023/07/26 05:17:52;;;;;;;5.77;2.70;;;12.40;99.90;;;;;;5072761;28;20797;-73
2023/07/26 05:20:18;;;;;;;4.30;2.43;;;12.50;99.90;;;;;;5072831;28;20180;-72
2023/07/26 05:22:44;;;;;;;9.03;3.77;;;12.50;99.90;;;;;;5072250;28;20284;-72
2023/07/26 05:25:10;;;;;;;7.33;3.70;;;12.60;99.90;;;;;;5064600;28;20212;-72
2023/07/26 05:27:35;;;;;;;6.10;3.63;;;12.60;99.90;;;;;;5071418;28;20578;-72
2023/07/26 05:30:01;;;;;;;4.37;3.10;;;12.60;99.90;;;;;;5062524;28;20199;-72
2023/07/26 05:32:27;;;;;;;4.90;2.77;;;12.60;99.90;;;;;;5072010;28;20212;-72
2023/07/26 05:34:57;;;;;;;3.80;2.73;;;12.60;99.90;;;;;;5071290;28;20248;-73
2023/07/26 05:37:23;;;;;;;5.87;3.30;;;12.70;99.90;;;;;;5071758;28;20888;-72
2023/07/26 05:39:50;;;;;;;6.20;3.60;;;12.70;99.90;;;;;;5071700;28;20416;-72
2023/07/26 05:42:16;;;;;;;6.40;3.13;;;12.80;99.90;;;;;;5071608;28;20775;-72
2023/07/26 05:44:41;;;;;;;4.57;3.07;;;12.80;99.90;;;;;;5070317;28;20427;-73
2023/07/26 05:47:09;;;;;;;5.57;3.53;;;12.80;99.90;;;;;;5065820;28;20591;-72
2023/07/26 05:49:35;;;;;;;4.00;2.80;;;12.80;99.90;;;;;;5071136;28;20221;-72
2023/07/26 05:52:00;;;;;;;6.87;3.70;;;12.80;99.90;;;;;;5071472;28;20505;-72
2023/07/26 05:54:26;;;;;;;6.33;3.23;;;12.70;99.90;;;;;;5066701;28;20208;-73
2023/07/26 05:56:52;;;;;;;5.30;3.43;;;12.80;99.90;;;;;;5066901;28;20213;-72
2023/07/26 05:59:17;;;;;;;6.77;3.67;;;12.70;99.90;;;;;;5068893;28;20612;-73
2023/07/26 06:01:43;;;;;;;4.47;2.87;;;12.70;99.90;;;;;;5071241;28;20177;-72
2023/07/26 06:04:08;;;;;;;4.43;2.90;;;12.80;99.90;;;;;;5071061;28;20169;-72
2023/07/26 06:06:34;;;;;;;4.07;2.70;;;12.80;99.90;;;;;;5070593;28;20218;-72
2023/07/26 06:09:00;;;;;;;5.43;2.83;;;12.80;99.90;;;;;;5070626;28;20200;-73
2023/07/26 06:11:26;;;;;;;4.97;2.63;;;12.90;99.90;;;;;;5070498;28;20274;-72
2023/07/26 06:13:53;;;;;;;5.30;3.00;;;12.90;99.90;;;;;;5070137;28;20251;-73
2023/07/26 06:16:19;;;;;;;7.60;3.40;;;13.00;99.90;;;;;;5070774;28;20223;-73
2023/07/26 06:18:44;;;;;;;5.10;3.40;;;13.00;99.90;;;;;;5049884;28;20526;-72
2023/07/26 06:21:11;;;;;;;5.70;3.97;;;13.00;99.90;;;;;;5031626;28;20226;-71
2023/07/26 06:23:37;;;;;;;4.63;3.20;;;13.00;99.90;;;;;;5066281;28;20180;-71
2023/07/26 06:26:03;;;;;;;6.27;3.83;;;13.10;99.90;;;;;;5068738;28;20423;-71
2023/07/26 06:28:29;;;;;;;5.73;3.77;;;13.20;99.90;;;;;;5070258;28;20451;-72
2023/07/26 06:30:56;;;;;;;4.70;3.50;;;13.30;99.90;;;;;;5066833;28;20484;-71
2023/07/26 06:33:21;;;;;;;7.43;3.77;;;13.40;99.90;;;;;;5062783;28;20702;-71
2023/07/26 06:35:47;;;;;;;4.70;3.23;;;13.50;99.90;;;;;;5068279;28;21390;-71
2023/07/26 06:38:12;;;;;;;11.20;3.13;;;13.50;99.90;;;;;;5058310;28;20191;-72
2023/07/26 06:40:38;;;;;;;5.37;3.20;;;13.60;99.90;;;;;;5068224;28;20176;-72
2023/07/26 06:43:05;;;;;;;4.63;3.00;;;13.60;99.90;;;;;;5063579;28;20195;-72
2023/07/26 06:45:31;;;;;;;4.53;3.30;;;13.50;99.90;;;;;;5065845;28;20189;-76
2023/07/26 06:47:56;;;;;;;4.77;3.60;;;13.50;99.90;;;;;;5066462;28;20427;-72
2023/07/26 06:50:22;;;;;;;4.63;3.07;;;13.40;99.90;;;;;;5069116;28;20181;-72
2023/07/26 06:52:48;;;;;;;6.97;3.07;;;13.40;99.90;;;;;;5067392;28;20185;-73
2023/07/26 06:55:14;;;;;;;4.97;3.27;;;13.30;99.90;;;;;;5064720;28;20204;-72
2023/07/26 06:57:40;;;;;;;4.93;3.40;;;13.30;99.90;;;;;;5063402;28;20434;-72
2023/07/26 07:00:12;;;;;;;5.50;3.30;;;13.10;99.90;;;;;;5068926;28;20472;-73
2023/07/26 07:02:39;;;;;;;8.70;3.90;;;13.10;99.90;;;;;;5067753;28;20174;-72
2023/07/26 07:05:05;;;;;;;3.37;2.47;;;13.00;99.90;;;;;;5067567;28;20944;-72
2023/07/26 07:07:31;;;;;;;9.03;2.83;;;13.10;99.90;;;;;;5071309;28;20419;-73
2023/07/26 07:09:56;;;;;;;9.00;3.50;;;13.10;99.90;;;;;;5071256;28;20928;-72
2023/07/26 07:12:22;;;;;;;6.17;3.87;;;13.10;99.90;;;;;;5069739;28;20177;-72
2023/07/26 07:14:47;;;;;;;5.10;3.70;;;13.10;99.90;;;;;;5070066;28;20189;-72
2023/07/26 07:17:13;;;;;;;7.67;5.03;;;13.10;99.90;;;;;;5068241;28;20332;-72
2023/07/26 07:19:39;;;;;;;7.53;3.77;;;13.10;99.90;;;;;;5071089;28;20211;-72
2023/07/26 07:22:04;;;;;;;6.00;3.83;;;13.00;99.90;;;;;;5068013;28;20185;-72
2023/07/26 07:24:30;;;;;;;5.10;3.50;;;13.00;99.90;;;;;;5045632;28;20264;-73
2023/07/26 07:26:56;;;;;;;5.77;3.40;;;12.90;99.90;;;;;;5068197;28;20744;-72
2023/07/26 07:29:21;;;;;;;7.60;4.50;;;12.90;99.90;;;;;;5071187;28;20184;-72
2023/07/26 07:31:47;;;;;;;7.47;3.43;;;12.80;99.90;;;;;;5071175;28;20195;-73
2023/07/26 07:34:12;;;;;;;11.33;3.90;;;12.80;99.90;;;;;;5070325;28;20651;-72
2023/07/26 07:36:38;;;;;;;5.37;3.30;;;12.70;99.90;;;;;;5071358;28;20323;-72
2023/07/26 07:39:07;;;;;;;4.97;3.50;;;12.70;99.90;;;;;;5070958;28;20185;-72
2023/07/26 07:41:33;;;;;;;8.27;4.33;;;12.60;99.90;;;;;;5070667;28;20200;-72
2023/07/26 07:43:59;;;;;;;4.10;2.70;;;12.70;99.90;;;;;;5069390;28;20513;-71
2023/07/26 07:46:28;;;;;;;6.17;3.70;;;12.70;99.90;;;;;;5066481;28;20515;-72
2023/07/26 07:48:55;;;;;;;4.50;2.90;;;12.60;99.90;;;;;;5064251;28;20552;-72
2023/07/26 07:51:20;;;;;;;11.23;3.20;;;12.60;99.90;;;;;;5068151;28;20427;-71
2023/07/26 07:53:48;;;;;;;5.87;2.93;;;12.60;99.90;;;;;;5069830;28;20526;-72
2023/07/26 07:56:14;;;;;;;5.53;3.10;;;12.50;99.90;;;;;;5067573;28;20197;-72
2023/07/26 07:58:39;;;;;;;5.63;3.27;;;12.50;99.90;;;;;;5071252;28;20420;-72
2023/07/26 08:01:05;;;;;;;3.83;2.50;;;12.40;99.90;;;;;;5070687;28;20181;-73
2023/07/26 08:03:31;;;;;;;7.47;2.43;;;12.30;99.90;;;;;;5070499;28;20227;-72
2023/07/26 08:05:57;;;;;;;5.27;2.73;;;12.20;99.90;;;;;;5070011;28;20193;-73
2023/07/26 08:08:23;;;;;;;3.10;2.07;;;12.10;99.90;;;;;;5070973;28;20415;-73
2023/07/26 08:10:49;;;;;;;3.90;2.30;;;12.10;99.90;;;;;;5071277;28;20720;-72
2023/07/26 08:13:15;;;;;;;5.37;2.90;;;12.10;99.90;;;;;;5068410;28;20986;-73
2023/07/26 08:15:41;;;;;;;6.10;3.17;;;12.20;99.90;;;;;;5070586;28;20496;-72
2023/07/26 08:18:06;;;;;;;5.07;2.73;;;12.20;99.90;;;;;;5066368;28;20193;-72
2023/07/26 08:20:33;;;;;;;3.60;2.37;;;12.10;99.90;;;;;;5070865;28;20495;-72
2023/07/26 08:22:59;;;;;;;2.57;2.00;;;12.10;99.90;;;;;;5067582;28;20263;-72
2023/07/26 08:25:25;;;;;;;3.30;1.83;;;12.10;99.90;;;;;;5063477;28;20450;-72
2023/07/26 08:27:51;;;;;;;5.67;2.00;;;12.10;99.90;;;;;;5068461;28;20948;-72
2023/07/26 08:30:16;;;;;;;4.00;1.33;;;12.10;99.90;;;;;;5070491;28;20219;-72
2023/07/26 08:32:42;;;;;;;1.70;1.10;;;12.20;99.90;;;;;;5069604;28;20181;-72
2023/07/26 08:35:08;;;;;;;2.40;1.60;;;12.50;99.90;;;;;;5068321;28;20538;-73
2023/07/26 08:37:33;;;;;;;2.27;1.00;;;12.40;99.90;;;;;;5070394;28;20263;-75
2023/07/26 08:40:00;;;;;;;2.90;1.57;;;12.50;99.90;;;;;;5071364;28;20177;-74
2023/07/26 08:42:26;;;;;;;3.90;0.90;;;12.40;99.90;;;;;;5071281;28;20319;-74
2023/07/26 08:44:53;;;;;;;2.13;1.00;;;12.30;99.90;;;;;;5068610;28;20411;-73
2023/07/26 08:47:22;;;;;;;2.90;0.90;;;12.20;99.90;;;;;;5070333;28;20734;-73
2023/07/26 08:49:49;;;;;;;1.60;0.77;;;12.00;99.90;;;;;;5069417;28;20523;-74
2023/07/26 08:52:17;;;;;;;1.50;0.60;;;11.90;99.90;;;;;;5069469;28;20407;-73
2023/07/26 08:54:46;;;;;;;2.07;0.90;;;11.90;99.90;;;;;;5063446;28;20933;-72
2023/07/26 08:57:12;;;;;;;1.57;0.93;;;11.90;99.90;;;;;;5067811;28;20478;-71
2023/07/26 08:59:38;;;;;;;1.30;0.70;;;11.90;99.90;;;;;;5065617;28;20423;-72
2023/07/26 09:02:04;;;;;;;1.50;0.83;;;12.00;99.90;;;;;;5066831;28;20186;-72
2023/07/26 09:04:33;;;;;;;1.83;0.90;;;12.10;99.90;;;;;;5065272;28;20666;-71
2023/07/26 09:07:02;;;;;;;2.73;1.20;;;12.10;99.90;;;;;;5067861;28;20458;-72
2023/07/26 09:09:29;;;;;;;1.50;0.70;;;12.10;99.90;;;;;;5062832;28;20420;-71
2023/07/26 09:11:55;;;;;;;1.93;0.77;;;12.00;99.90;;;;;;5066920;28;20422;-71
2023/07/26 09:14:27;;;;;;;1.50;0.80;;;11.90;99.90;;;;;;5067199;28;20419;-71
2023/07/26 09:17:01;;;;;;;1.83;1.10;;;11.90;99.90;;;;;;5066640;28;20287;-71
2023/07/26 09:19:32;;;;;;;2.57;1.33;;;12.00;99.90;;;;;;5063721;28;20428;-71
2023/07/26 09:22:00;;;;;;;2.33;1.20;;;12.20;99.90;;;;;;5066433;28;21160;-71
2023/07/26 09:24:39;;;;;;;2.10;1.10;;;12.40;99.90;;;;;;5066564;28;20455;-71
2023/07/26 09:27:10;;;;;;;4.67;1.57;;;12.40;99.90;;;;;;5067366;28;20526;-71
2023/07/26 09:29:38;;;;;;;3.20;1.53;;;12.50;99.90;;;;;;5067895;28;20481;-71
2023/07/26 09:32:05;;;;;;;1.47;0.90;;;12.50;99.90;;;;;;5067216;28;20900;-72
2023/07/26 09:34:32;;;;;;;1.57;0.83;;;12.60;99.90;;;;;;5069923;28;20919;-72
2023/07/26 09:36:58;;;;;;;2.43;1.23;;;12.60;99.90;;;;;;5065734;28;20529;-71
2023/07/26 09:39:25;;;;;;;2.50;1.47;;;12.70;99.90;;;;;;5065991;28;20459;-71
2023/07/26 09:42:06;;;;;;;2.47;1.43;;;12.90;99.90;;;;;;5064001;28;20510;-71
2023/07/26 09:44:32;;;;;;;2.00;1.00;;;12.90;99.90;;;;;;5065803;28;20445;-71
2023/07/26 09:46:58;;;;;;;1.70;1.00;;;13.10;99.90;;;;;;5064144;28;20442;-72
2023/07/26 09:49:27;;;;;;;4.97;1.50;;;13.30;99.90;;;;;;5065489;28;20810;-72
2023/07/26 09:51:57;;;;;;;2.90;1.53;;;13.40;99.90;;;;;;5066915;28;20474;-72
2023/07/26 09:54:26;;;;;;;2.10;1.20;;;13.50;99.90;;;;;;5065141;28;20864;-72
2023/07/26 09:56:54;;;;;;;2.10;1.33;;;13.50;99.90;;;;;;5067864;28;20482;-72
2023/07/26 09:59:23;;;;;;;5.80;2.00;;;13.60;99.90;;;;;;5069797;28;20422;-72
2023/07/26 10:01:50;;;;;;;2.83;1.20;;;14.10;99.90;;;;;;5060553;28;20839;-72
2023/07/26 10:04:16;;;;;;;1.57;0.90;;;14.60;99.90;;;;;;5065722;28;20424;-73
2023/07/26 10:06:43;;;;;;;2.87;1.50;;;14.60;99.90;;;;;;5061935;28;20427;-71
2023/07/26 10:09:14;;;;;;;1.80;0.93;;;14.90;99.90;;;;;;5065518;28;20446;-73
2023/07/26 10:11:41;;;;;;;2.40;1.03;;;15.00;99.90;;;;;;5068771;28;20482;-70
2023/07/26 10:14:12;;;;;;;2.00;1.07;;;15.10;99.90;;;;;;5052236;28;20557;-71
2023/07/26 10:16:39;;;;;;;2.33;1.30;;;15.20;99.90;;;;;;5062706;28;20565;-71
2023/07/26 10:19:06;;;;;;;8.40;1.33;;;15.30;99.90;;;;;;5064499;28;20423;-70
2023/07/26 10:21:35;;;;;;;2.23;1.33;;;15.20;99.90;;;;;;5064751;28;20458;-71
2023/07/26 10:24:03;;;;;;;1.70;1.10;;;14.90;99.90;;;;;;5067901;28;20549;-71
2023/07/26 10:26:32;;;;;;;2.67;1.37;;;14.70;99.90;;;;;;5064541;28;20846;-70
2023/07/26 10:29:02;;;;;;;4.97;1.27;;;14.40;99.90;;;;;;5061095;28;20434;-70
2023/07/26 10:31:30;;;;;;;3.33;1.50;;;14.10;99.90;;;;;;5062310;28;20412;-70
2023/07/26 10:33:57;;;;;;;3.93;1.30;;;13.80;99.90;;;;;;5068380;28;20504;-70
2023/07/26 10:36:33;;;;;;;2.47;1.20;;;13.80;99.90;;;;;;5066169;28;20550;-71
2023/07/26 10:39:06;;;;;;;6.40;1.53;;;13.70;99.90;;;;;;5063076;28;20538;-71
2023/07/26 10:41:34;;;;;;;2.77;1.47;;;13.70;99.90;;;;;;5060687;28;20477;-71
2023/07/26 10:44:11;;;;;;;3.13;1.60;;;13.70;99.90;;;;;;5068476;28;20896;-70
2023/07/26 10:46:53;;;;;;;3.10;1.70;;;13.70;99.90;;;;;;5069379;28;20433;-71
2023/07/26 10:49:24;;;;;;;4.30;1.50;;;13.80;99.90;;;;;;5066401;28;20468;-71
2023/07/26 10:51:58;;;;;;;2.57;1.40;;;13.80;99.90;;;;;;5065042;28;20912;-71
2023/07/26 10:54:37;;;;;;;2.10;1.03;;;14.00;99.90;;;;;;5058547;28;20546;-69
2023/07/26 10:57:24;;;;;;;2.60;1.10;;;14.30;99.90;;;;;;5068728;28;20486;-70
2023/07/26 10:59:55;;;;;;;2.07;1.03;;;14.30;99.90;;;;;;5068506;28;20519;-71
2023/07/26 11:02:52;;;;;;;2.20;1.10;;;14.30;99.90;;;;;;5068795;28;20518;-72
2023/07/26 11:05:20;;;;;;;3.40;1.47;;;14.40;99.90;;;;;;5067008;28;20458;-71
2023/07/26 11:08:04;;;;;;;4.07;1.50;;;14.60;99.90;;;;;;5067806;28;20709;-71
2023/07/26 11:10:32;;;;;;;4.90;1.37;;;14.70;99.90;;;;;;5070846;28;20411;-71
2023/07/26 11:13:10;;;;;;;3.03;1.40;;;14.70;99.90;;;;;;5070551;28;20411;-71
2023/07/26 11:15:41;;;;;;;1.70;0.83;;;14.60;99.90;;;;;;5069155;28;20740;-72
2023/07/26 11:18:07;;;;;;;1.97;1.17;;;14.80;99.90;;;;;;5070408;28;20458;-71
2023/07/26 11:20:37;;;;;;;2.37;1.20;;;15.10;99.90;;;;;;5069783;28;20435;-71
2023/07/26 11:23:22;;;;;;;2.17;1.00;;;15.30;99.90;;;;;;5066455;28;20960;-70
2023/07/26 11:25:51;;;;;;;1.97;1.03;;;15.80;99.90;;;;;;5067592;28;20484;-71
2023/07/26 11:28:17;;;;;;;1.70;0.90;;;16.00;99.90;;;;;;5068202;28;20442;-72
2023/07/26 11:30:51;;;;;;;3.20;0.70;;;16.00;99.90;;;;;;5067781;28;20432;-71
2023/07/26 11:33:36;;;;;;;1.90;0.90;;;16.10;99.90;;;;;;5064110;28;20613;-71
2023/07/26 11:36:03;;;;;;;7.23;0.80;;;16.40;99.90;;;;;;5067471;28;20509;-71
2023/07/26 11:38:29;;;;;;;1.60;0.90;;;16.30;99.90;;;;;;5069806;28;20415;-71
2023/07/26 11:40:56;;;;;;;2.87;0.93;;;16.30;99.90;;;;;;5065660;28;20473;-71
2023/07/26 11:43:25;;;;;;;1.40;0.60;;;16.40;99.90;;;;;;5065842;28;20504;-70
2023/07/26 11:45:52;;;;;;;5.60;1.33;;;16.60;99.90;;;;;;5068708;28;20995;-71
2023/07/26 11:48:18;;;;;;;2.67;0.90;;;16.70;99.90;;;;;;5067546;28;20480;-70
2023/07/26 11:50:43;;;;;;;2.17;0.90;;;16.80;99.90;;;;;;5061353;28;20438;-71
2023/07/26 11:53:12;;;;;;;1.90;1.00;;;16.70;99.90;;;;;;5071210;28;20177;-71
2023/07/26 11:55:39;;;;;;;1.80;0.93;;;16.40;99.90;;;;;;5070776;28;20208;-71
2023/07/26 11:58:08;;;;;;;2.20;1.10;;;16.20;99.90;;;;;;5070929;28;20435;-72
2023/07/26 12:00:43;;;;;;;1.90;0.90;;;16.10;99.90;;;;;;5071727;28;20427;-71
2023/07/26 12:03:10;;;;;;;2.63;1.10;;;16.20;99.90;;;;;;5066648;28;20423;-71
2023/07/26 12:05:39;;;;;;;2.73;1.27;;;16.40;99.90;;;;;;5073162;28;20422;-71
2023/07/26 12:08:05;;;;;;;4.83;0.97;;;16.70;99.90;;;;;;5066535;28;20888;-71
2023/07/26 12:10:35;;;;;;;2.13;1.13;;;16.90;99.90;;;;;;5073426;28;20435;-71
2023/07/26 12:13:07;;;;;;;2.00;0.90;;;17.10;99.90;;;;;;5074188;28;20896;-72
2023/07/26 12:15:49;;;;;;;1.93;1.37;;;17.10;99.90;;;;;;5071776;28;20545;-72
2023/07/26 12:18:14;;;;;;;2.30;1.43;;;17.20;99.90;;;;;;5071812;28;20418;-72
2023/07/26 12:21:00;;;;;;;2.60;1.00;;;17.10;99.90;;;;;;5073299;28;20416;-72
2023/07/26 12:23:27;;;;;;;1.80;0.83;;;17.10;99.90;;;;;;5060464;28;20177;-74
2023/07/26 12:25:56;;;;;;;2.90;1.00;;;16.90;99.90;;;;;;5073575;28;20783;-72
2023/07/26 12:28:25;;;;;;;8.67;0.93;;;16.70;99.90;;;;;;5061332;28;20419;-72
2023/07/26 12:30:55;;;;;;;2.50;1.33;;;16.60;99.90;;;;;;5073301;28;20543;-72
2023/07/26 12:33:22;;;;;;;2.63;1.50;;;16.40;99.90;;;;;;5072782;28;20804;-71
2023/07/26 12:35:51;;;;;;;3.07;1.43;;;16.30;99.90;;;;;;5072764;28;20497;-72
2023/07/26 12:38:21;;;;;;;3.40;1.50;;;15.90;99.90;;;;;;5073622;28;20889;-72
2023/07/26 12:40:47;;;;;;;1.83;0.93;;;15.70;99.90;;;;;;5073180;28;20423;-71
2023/07/26 12:43:29;;;;;;;6.13;1.63;;;15.70;99.90;;;;;;5072849;28;20411;-72
2023/07/26 12:46:03;;;;;;;4.87;1.60;;;15.70;99.90;;;;;;5073929;28;20494;-72